Sharptown, New Jersey
Current Conditions -  °F | °C
As of 12:51 PM on Saturday 22 Nov 2014 (Local Time) from KILG Reporting Station
Clear Clear  
Wind Chill: 38°   Ceiling: Unl
Heat Index: 44°   Visibility: 10mi
Dew Point: 17°   Wind: 13mph
Humidity: 34%   Direction: 220°SW
Pressure: 30.4"   Gusts: 21mph
Location:  39.6335°N, 75.3233°W
Report Text: KILG 221751Z 22011G18KT 10SM CLR 07/M08 A3040 RMK AO2 SLP294 T00671083 10067 21061 58041
Loading
Personal Weather Stations






























Interactive Weather Map New forecast layout! Learn more

10-Day Weather Forecast

Advertisements
Track Severe Weather on mobile